createdAt,value
2023-01-22T00:02:25.056Z,55.00
2023-01-22T00:04:53.825Z,54.10
2023-01-22T00:07:23.120Z,52.90
2023-01-22T00:09:53.081Z,53.20
2023-01-22T00:12:24.552Z,53.20
2023-01-22T00:14:57.185Z,55.30
2023-01-22T00:17:25.850Z,52.80
2023-01-22T00:19:54.590Z,50.60
2023-01-22T00:22:24.289Z,46.20
2023-01-22T00:24:53.055Z,51.00
2023-01-22T00:27:24.438Z,57.80
2023-01-22T00:29:54.112Z,52.50
2023-01-22T00:32:23.413Z,57.40
2023-01-22T00:34:55.260Z,49.70
2023-01-22T00:37:24.508Z,51.50
2023-01-22T00:39:53.861Z,48.30
2023-01-22T00:42:23.641Z,48.30
2023-01-22T00:44:55.097Z,51.70
2023-01-22T00:47:24.381Z,50.50
2023-01-22T00:49:56.052Z,50.90
2023-01-22T00:52:24.911Z,53.40
2023-01-22T00:54:54.326Z,55.30
2023-01-22T00:57:23.061Z,54.60
2023-01-22T00:59:55.321Z,52.70
2023-01-22T01:02:26.106Z,52.90
2023-01-22T01:05:00.113Z,54.50
2023-01-22T01:10:01.094Z,54.90
2023-01-22T01:12:30.340Z,48.00
2023-01-22T01:14:59.584Z,43.90
2023-01-22T01:17:31.113Z,45.10
2023-01-22T01:19:59.904Z,45.40
2023-01-22T01:22:29.148Z,46.90
2023-01-22T01:25:04.568Z,52.40
2023-01-22T01:27:38.867Z,53.10
2023-01-22T01:30:08.602Z,46.00
2023-01-22T01:32:37.253Z,49.80
2023-01-22T01:35:06.662Z,43.30
2023-01-22T01:37:37.696Z,45.30
2023-01-22T01:40:11.646Z,37.50
2023-01-22T01:42:46.795Z,34.60
2023-01-22T01:45:32.286Z,34.20
2023-01-22T01:48:12.420Z,32.30
2023-01-22T01:50:53.049Z,32.60
2023-01-22T01:53:21.789Z,31.80
2023-01-22T01:55:51.482Z,28.90
2023-01-22T01:58:23.848Z,32.00
2023-01-22T02:01:01.318Z,26.10
2023-01-22T02:03:30.767Z,25.30
2023-01-22T02:05:59.604Z,23.70
2023-01-22T02:08:28.704Z,23.10
2023-01-22T02:10:58.917Z,24.10
2023-01-22T02:13:31.386Z,25.30
2023-01-22T02:16:05.375Z,25.50
2023-01-22T02:18:34.378Z,25.10
2023-01-22T02:21:04.029Z,22.20
2023-01-22T02:23:35.355Z,24.20
2023-01-22T02:26:06.309Z,23.70
2023-01-22T02:28:37.688Z,24.80
2023-01-22T02:31:12.141Z,24.30
2023-01-22T02:33:46.469Z,22.60
2023-01-22T02:36:23.351Z,24.90
2023-01-22T02:38:54.917Z,26.40
2023-01-22T02:41:23.609Z,22.80
2023-01-22T02:43:59.051Z,21.10
2023-01-22T02:46:30.961Z,23.10
2023-01-22T02:49:02.972Z,24.60
2023-01-22T02:51:33.075Z,27.50
2023-01-22T02:54:08.694Z,25.70
2023-01-22T02:56:40.121Z,26.90
2023-01-22T03:01:40.028Z,36.90
2023-01-22T03:04:13.721Z,37.10
2023-01-22T03:06:47.920Z,38.00
2023-01-22T03:09:18.724Z,34.90
2023-01-22T03:11:50.762Z,38.00
2023-01-22T03:14:44.045Z,35.80
2023-01-22T03:17:31.204Z,38.90
2023-01-22T03:20:19.572Z,40.30
2023-01-22T03:22:49.891Z,41.00
2023-01-22T03:25:21.297Z,43.90
2023-01-22T03:28:08.615Z,39.60
2023-01-22T03:30:40.379Z,39.70
2023-01-22T03:33:09.746Z,38.40
2023-01-22T03:35:43.944Z,40.20
2023-01-22T03:38:19.953Z,42.80
2023-01-22T03:40:53.977Z,39.50
2023-01-22T03:43:23.356Z,43.80
2023-01-22T03:45:52.067Z,41.30
2023-01-22T03:48:21.378Z,39.80
2023-01-22T03:50:53.519Z,41.00
2023-01-22T03:53:22.296Z,43.50
2023-01-22T03:55:59.108Z,42.50
2023-01-22T03:58:34.215Z,43.80
2023-01-22T04:01:10.832Z,39.70
2023-01-22T04:03:39.858Z,40.60
2023-01-22T04:06:10.866Z,40.70
2023-01-22T04:08:42.416Z,38.00
2023-01-22T04:11:13.577Z,40.50
2023-01-22T04:13:44.259Z,44.30
2023-01-22T04:16:23.155Z,45.50
2023-01-22T04:18:57.974Z,42.00
2023-01-22T04:21:52.693Z,45.50
2023-01-22T04:24:21.641Z,47.80
2023-01-22T04:26:53.734Z,48.00
2023-01-22T04:29:22.403Z,45.50
2023-01-22T04:31:54.177Z,50.90
2023-01-22T04:34:38.705Z,50.50
2023-01-22T04:37:30.817Z,49.80
2023-01-22T04:40:03.447Z,46.40
2023-01-22T04:42:40.210Z,42.20
2023-01-22T04:45:12.249Z,41.10
2023-01-22T04:47:49.072Z,43.30
2023-01-22T04:50:32.647Z,42.10
2023-01-22T04:53:02.043Z,44.20
2023-01-22T04:55:32.908Z,43.00
2023-01-22T04:58:08.905Z,39.60
2023-01-22T05:00:41.776Z,36.40
2023-01-22T05:03:16.581Z,28.10
2023-01-22T05:05:51.283Z,31.70
2023-01-22T05:08:25.694Z,30.20
2023-01-22T05:11:00.122Z,27.80
2023-01-22T05:13:31.365Z,29.50
2023-01-22T05:16:00.764Z,25.50
2023-01-22T05:18:34.338Z,30.30
2023-01-22T05:21:06.293Z,27.60
2023-01-22T05:23:38.774Z,27.80
2023-01-22T05:26:15.230Z,28.40
2023-01-22T05:29:06.043Z,28.50
2023-01-22T05:31:43.383Z,29.80
2023-01-22T05:34:28.651Z,32.40
2023-01-22T05:36:57.292Z,29.70
2023-01-22T05:39:32.776Z,31.00
2023-01-22T05:42:03.101Z,31.00
2023-01-22T05:44:33.595Z,29.20
2023-01-22T05:47:04.946Z,28.10
2023-01-22T05:50:02.953Z,29.00
2023-01-22T05:52:31.617Z,29.70
2023-01-22T05:55:02.888Z,30.50
2023-01-22T05:57:38.089Z,31.60
2023-01-22T06:00:16.808Z,30.20
2023-01-22T06:02:49.344Z,29.30
2023-01-22T06:05:18.160Z,32.40
2023-01-22T06:07:53.567Z,37.80
2023-01-22T06:10:23.549Z,36.80
2023-01-22T06:12:52.603Z,37.60
2023-01-22T06:15:25.701Z,38.20
2023-01-22T06:18:06.778Z,39.80
2023-01-22T06:20:38.154Z,40.00
2023-01-22T06:23:12.185Z,34.20
2023-01-22T06:25:43.738Z,39.10
2023-01-22T06:28:17.713Z,35.50
2023-01-22T06:30:57.720Z,36.10
2023-01-22T06:33:26.411Z,38.50
2023-01-22T06:36:03.791Z,39.80
2023-01-22T06:38:32.816Z,40.40
2023-01-22T06:41:05.915Z,38.00
2023-01-22T06:43:35.218Z,35.40
2023-01-22T06:46:07.446Z,37.90
2023-01-22T06:48:53.555Z,42.50
2023-01-22T06:51:23.031Z,43.70
2023-01-22T06:53:51.798Z,41.90
2023-01-22T06:56:21.648Z,34.70
2023-01-22T06:58:50.519Z,34.90
2023-01-22T07:01:19.344Z,37.40
2023-01-22T07:03:50.843Z,42.20
2023-01-22T07:06:39.418Z,36.10
2023-01-22T07:09:08.079Z,37.60
2023-01-22T07:11:39.136Z,46.30
2023-01-22T07:14:28.838Z,50.90
2023-01-22T07:17:07.190Z,38.40
2023-01-22T07:19:38.269Z,47.50
2023-01-22T07:22:18.433Z,43.20
2023-01-22T07:24:53.330Z,41.40
2023-01-22T07:27:22.481Z,38.00
2023-01-22T07:29:51.296Z,35.70
2023-01-22T07:32:22.585Z,34.90
2023-01-22T07:34:56.515Z,32.20
2023-01-22T07:37:25.136Z,29.60
2023-01-22T07:39:56.519Z,27.90
2023-01-22T07:42:25.312Z,25.70
2023-01-22T07:44:53.901Z,26.50
2023-01-22T07:47:22.482Z,25.00
2023-01-22T07:49:54.153Z,25.70
2023-01-22T07:52:23.832Z,25.40
2023-01-22T07:54:52.450Z,27.90
2023-01-22T07:57:21.025Z,25.80
2023-01-22T07:59:49.620Z,23.70
2023-01-22T08:02:18.302Z,26.80
2023-01-22T08:04:49.357Z,24.70
2023-01-22T08:07:18.434Z,26.30
2023-01-22T08:09:47.308Z,27.10
2023-01-22T08:12:16.139Z,27.80
2023-01-22T08:14:45.401Z,27.40
2023-01-22T08:17:14.233Z,33.90
2023-01-22T08:19:48.967Z,33.40
2023-01-22T08:22:17.651Z,39.40
2023-01-22T08:24:47.034Z,45.00
2023-01-22T08:27:18.744Z,38.30
2023-01-22T08:29:51.580Z,40.60
2023-01-22T08:32:20.222Z,40.40
2023-01-22T08:34:48.836Z,36.70
2023-01-22T08:37:17.427Z,35.10
2023-01-22T08:39:46.217Z,30.00
2023-01-22T08:42:36.263Z,30.70
2023-01-22T08:45:05.474Z,31.30
2023-01-22T08:47:36.586Z,27.40
2023-01-22T08:50:07.506Z,26.10
2023-01-22T08:52:38.304Z,27.50
2023-01-22T08:55:10.254Z,31.80
2023-01-22T08:57:38.963Z,27.30
2023-01-22T09:00:11.396Z,30.20
2023-01-22T09:02:49.019Z,28.80
2023-01-22T09:05:17.682Z,29.50
2023-01-22T09:07:46.467Z,25.10
2023-01-22T09:10:15.173Z,24.00
2023-01-22T09:12:46.966Z,25.80
2023-01-22T09:15:15.780Z,24.90
2023-01-22T09:17:55.870Z,26.70
2023-01-22T09:20:24.510Z,30.90
2023-01-22T09:22:53.333Z,27.40
2023-01-22T09:25:22.834Z,31.10
2023-01-22T09:27:57.887Z,31.60
2023-01-22T09:30:30.694Z,26.80
2023-01-22T09:33:00.413Z,29.70
2023-01-22T09:35:29.439Z,24.00
2023-01-22T09:37:58.215Z,21.70
2023-01-22T09:40:30.849Z,21.40
2023-01-22T09:43:13.770Z,22.40
2023-01-22T09:45:49.840Z,21.20
2023-01-22T09:48:24.939Z,21.40
2023-01-22T09:50:54.167Z,20.70
2023-01-22T09:53:23.070Z,18.80
2023-01-22T09:55:53.611Z,21.40
2023-01-22T09:58:24.860Z,22.50
2023-01-22T10:01:11.836Z,22.90
2023-01-22T10:03:46.419Z,21.80
2023-01-22T10:06:21.824Z,26.30
2023-01-22T10:08:56.419Z,23.30
2023-01-22T10:11:26.207Z,24.40
2023-01-22T10:14:03.082Z,23.10
2023-01-22T10:16:31.724Z,25.90
2023-01-22T10:19:14.456Z,24.80
2023-01-22T10:21:47.150Z,26.40
2023-01-22T10:26:54.783Z,23.50
2023-01-22T10:29:37.848Z,28.50
2023-01-22T10:32:20.502Z,29.50
2023-01-22T10:35:19.795Z,27.70
2023-01-22T10:37:54.120Z,28.80
2023-01-22T10:40:24.863Z,29.10
2023-01-22T10:43:20.364Z,29.60
2023-01-22T10:45:57.427Z,30.40
2023-01-22T10:48:26.279Z,25.30
2023-01-22T10:51:16.729Z,27.60
2023-01-22T10:53:57.722Z,22.70
2023-01-22T10:56:31.593Z,24.30
2023-01-22T10:59:04.359Z,24.30
2023-01-22T11:01:36.826Z,23.60
2023-01-22T11:04:15.567Z,22.00
2023-01-22T11:07:04.892Z,20.80
2023-01-22T11:09:52.109Z,19.40
2023-01-22T11:16:02.910Z,19.20
2023-01-22T11:18:40.822Z,21.00
2023-01-22T11:21:32.452Z,18.50
2023-01-22T11:24:23.036Z,20.20
2023-01-22T11:27:32.302Z,20.70
2023-01-22T11:30:31.592Z,21.20
2023-01-22T11:33:19.905Z,20.50
2023-01-22T11:35:58.009Z,21.50
2023-01-22T11:38:52.809Z,25.40
2023-01-22T11:41:43.435Z,22.30
2023-01-22T11:44:33.466Z,22.00
2023-01-22T11:47:40.616Z,25.60
2023-01-22T11:50:36.637Z,22.10
2023-01-22T11:53:30.018Z,23.60
2023-01-22T11:56:26.084Z,23.70
2023-01-22T11:59:04.768Z,26.30
2023-01-22T12:02:16.637Z,27.30
2023-01-22T12:05:10.216Z,27.00
2023-01-22T12:08:01.576Z,23.90
2023-01-22T12:10:35.551Z,27.50
2023-01-22T12:13:27.149Z,27.90
2023-01-22T12:16:14.862Z,28.20
2023-01-22T12:18:49.605Z,32.60
2023-01-22T12:21:54.930Z,30.50
2023-01-22T12:24:40.487Z,25.80
2023-01-22T12:27:24.563Z,28.40
2023-01-22T12:29:53.051Z,24.80
2023-01-22T12:32:23.344Z,24.30
2023-01-22T12:35:15.168Z,26.40
2023-01-22T12:37:57.637Z,24.80
2023-01-22T12:40:32.255Z,22.00
2023-01-22T12:43:06.667Z,20.40
2023-01-22T12:46:05.573Z,22.20
2023-01-22T12:48:50.281Z,22.50
2023-01-22T12:51:45.246Z,22.30
2023-01-22T12:54:36.332Z,18.50
2023-01-22T12:57:33.243Z,19.30
2023-01-22T13:00:24.230Z,19.30
2023-01-22T13:02:52.992Z,21.30
2023-01-22T13:05:30.848Z,18.00
2023-01-22T13:08:19.311Z,23.20
2023-01-22T13:11:03.665Z,18.90
2023-01-22T13:13:49.774Z,20.10
2023-01-22T13:16:23.550Z,18.70
2023-01-22T13:18:55.324Z,18.30
2023-01-22T13:21:29.711Z,20.00
2023-01-22T13:24:05.058Z,18.80
2023-01-22T13:26:36.366Z,18.60
2023-01-22T13:29:27.144Z,18.70
2023-01-22T13:32:01.060Z,19.80
2023-01-22T13:34:30.477Z,19.50
2023-01-22T13:37:00.410Z,20.80
2023-01-22T13:39:34.181Z,20.80
2023-01-22T13:42:05.362Z,19.50
2023-01-22T13:44:40.894Z,18.90
2023-01-22T13:47:27.902Z,23.30
2023-01-22T13:49:56.659Z,21.70
2023-01-22T13:52:28.520Z,27.10
2023-01-22T13:55:17.488Z,25.20
2023-01-22T13:57:58.060Z,23.30
2023-01-22T14:00:31.341Z,23.60
2023-01-22T14:03:01.038Z,26.10
2023-01-22T14:05:38.493Z,29.70
2023-01-22T14:08:12.946Z,27.90
2023-01-22T14:10:42.329Z,25.40
2023-01-22T14:13:13.511Z,25.00
2023-01-22T14:15:42.630Z,22.10
2023-01-22T14:18:17.244Z,24.40
2023-01-22T14:20:47.089Z,22.90
2023-01-22T14:23:16.624Z,23.50
2023-01-22T14:25:51.112Z,20.90
2023-01-22T14:28:23.646Z,20.60
2023-01-22T14:30:52.489Z,18.90
2023-01-22T14:33:25.724Z,19.60
2023-01-22T14:35:57.264Z,16.10
2023-01-22T14:38:29.419Z,20.30
2023-01-22T14:41:01.208Z,16.20
2023-01-22T14:43:29.771Z,18.30
2023-01-22T14:46:01.231Z,18.80
2023-01-22T14:48:29.764Z,20.20
2023-01-22T14:51:02.943Z,19.90
2023-01-22T14:53:31.528Z,24.30
2023-01-22T14:56:00.090Z,24.40
2023-01-22T14:58:28.868Z,25.20
2023-01-22T15:00:57.535Z,24.40
2023-01-22T15:03:30.952Z,24.40
2023-01-22T15:05:59.616Z,24.80
2023-01-22T15:08:28.275Z,25.90
2023-01-22T15:11:03.380Z,25.30
2023-01-22T15:13:33.935Z,25.90
2023-01-22T15:16:07.311Z,24.80
2023-01-22T15:18:37.744Z,24.00
2023-01-22T15:21:08.785Z,27.50
2023-01-22T15:23:37.564Z,25.00
2023-01-22T15:26:10.790Z,24.00
2023-01-22T15:28:40.296Z,21.90
2023-01-22T15:31:09.613Z,22.30
2023-01-22T15:33:41.083Z,22.70
2023-01-22T15:36:13.750Z,21.70
2023-01-22T15:38:42.480Z,23.50
2023-01-22T15:41:31.870Z,22.80
2023-01-22T15:44:06.057Z,23.90
2023-01-22T15:46:41.393Z,24.60
2023-01-22T15:49:12.531Z,25.10
2023-01-22T15:51:42.206Z,24.00
2023-01-22T15:54:15.393Z,25.90
2023-01-22T15:56:46.703Z,24.90
2023-01-22T15:59:15.365Z,24.70
2023-01-22T16:01:47.079Z,21.90
2023-01-22T16:04:16.663Z,23.40
2023-01-22T16:06:45.381Z,23.20
2023-01-22T16:09:14.031Z,21.70
2023-01-22T16:11:42.836Z,23.60
2023-01-22T16:14:11.508Z,24.00
2023-01-22T16:16:41.591Z,24.20
2023-01-22T16:19:13.432Z,23.00
2023-01-22T16:21:45.189Z,22.70
2023-01-22T16:24:13.799Z,27.80
2023-01-22T16:26:43.205Z,28.20
2023-01-22T16:29:12.135Z,33.60
2023-01-22T16:31:42.967Z,28.40
2023-01-22T16:34:17.341Z,35.30
2023-01-22T16:36:46.905Z,33.50
2023-01-22T16:39:24.138Z,29.20
2023-01-22T16:41:53.911Z,27.60
2023-01-22T16:44:26.235Z,24.60
2023-01-22T16:46:57.864Z,28.40
2023-01-22T16:49:30.401Z,30.10
2023-01-22T16:52:21.421Z,30.40
2023-01-22T16:54:51.945Z,30.90
2023-01-22T16:57:20.648Z,30.90
2023-01-22T16:59:49.372Z,26.60
2023-01-22T17:02:19.587Z,25.80
2023-01-22T17:04:48.403Z,26.20
2023-01-22T17:07:32.724Z,25.80
2023-01-22T17:10:02.303Z,25.00
2023-01-22T17:12:31.196Z,24.40
2023-01-22T17:14:59.896Z,25.30
2023-01-22T17:17:28.510Z,24.20
2023-01-22T17:19:57.869Z,23.40
2023-01-22T17:22:27.210Z,23.10
2023-01-22T17:24:55.931Z,23.50
2023-01-22T17:27:27.394Z,24.30
2023-01-22T17:29:56.849Z,32.20
2023-01-22T17:32:26.682Z,30.90
2023-01-22T17:34:55.937Z,35.50
2023-01-22T17:37:25.492Z,39.20
2023-01-22T17:39:54.509Z,46.60
2023-01-22T17:42:23.428Z,46.60
2023-01-22T17:44:54.921Z,55.50
2023-01-22T17:47:26.389Z,53.60
2023-01-22T17:49:55.965Z,51.90
2023-01-22T17:52:27.199Z,56.10
2023-01-22T17:55:00.495Z,56.50
2023-01-22T17:57:50.342Z,56.90
2023-01-22T18:00:23.175Z,53.40
2023-01-22T18:05:26.845Z,55.40
2023-01-22T18:07:55.642Z,54.00
2023-01-22T18:10:28.394Z,56.40
2023-01-22T18:12:57.039Z,64.30
2023-01-22T18:15:29.381Z,61.60
2023-01-22T18:18:03.493Z,58.20
2023-01-22T18:20:32.522Z,61.30
2023-01-22T18:23:02.484Z,60.80
2023-01-22T18:25:34.303Z,59.50
2023-01-22T18:28:03.066Z,59.90
2023-01-22T18:30:34.002Z,62.30
2023-01-22T18:33:08.165Z,60.10
2023-01-22T18:35:37.576Z,64.30
2023-01-22T18:38:09.073Z,60.50
2023-01-22T18:40:38.325Z,58.60
2023-01-22T18:43:09.263Z,65.00
2023-01-22T18:45:42.414Z,57.20
2023-01-22T18:48:13.756Z,65.30
2023-01-22T18:50:43.080Z,52.80
2023-01-22T18:53:12.293Z,53.40
2023-01-22T18:55:41.706Z,56.40
2023-01-22T18:58:30.804Z,61.70
2023-01-22T19:01:33.684Z,62.20
2023-01-22T19:04:05.779Z,63.30
2023-01-22T19:06:37.466Z,68.00
2023-01-22T19:09:16.216Z,61.60
2023-01-22T19:11:47.894Z,67.60
2023-01-22T19:14:18.601Z,63.30
2023-01-22T19:16:52.838Z,78.00
2023-01-22T19:19:22.854Z,70.20
2023-01-22T19:21:54.897Z,81.10
2023-01-22T19:24:27.565Z,83.40
2023-01-22T19:26:58.723Z,81.80
2023-01-22T19:29:27.453Z,88.00
2023-01-22T19:31:57.792Z,76.40
2023-01-22T19:34:29.281Z,75.80
2023-01-22T19:37:03.573Z,69.80
2023-01-22T19:39:34.290Z,64.60
2023-01-22T19:42:05.390Z,67.20
2023-01-22T19:44:35.439Z,66.90
2023-01-22T19:47:04.107Z,65.90
2023-01-22T19:49:33.265Z,68.30
2023-01-22T19:52:02.101Z,66.80
2023-01-22T19:54:30.845Z,68.00
2023-01-22T19:56:59.407Z,60.10
2023-01-22T19:59:28.589Z,54.80
2023-01-22T20:01:57.844Z,54.00
2023-01-22T20:04:32.548Z,52.90
2023-01-22T20:07:05.210Z,51.80
2023-01-22T20:09:35.154Z,49.70
2023-01-22T20:12:06.379Z,54.10
2023-01-22T20:14:39.315Z,51.90
2023-01-22T20:17:13.340Z,57.20
2023-01-22T20:19:42.586Z,53.90
2023-01-22T20:22:11.280Z,49.40
2023-01-22T20:24:41.920Z,50.60
2023-01-22T20:27:11.112Z,51.40
2023-01-22T20:29:44.568Z,63.10
2023-01-22T20:32:13.191Z,55.60
2023-01-22T20:34:48.948Z,56.60
2023-01-22T20:37:17.649Z,57.20
2023-01-22T20:39:46.399Z,57.40
2023-01-22T20:42:14.937Z,54.70
2023-01-22T20:44:45.962Z,62.90
2023-01-22T20:47:14.767Z,63.10
2023-01-22T20:49:43.393Z,59.90
2023-01-22T20:52:11.954Z,60.40
2023-01-22T20:54:54.930Z,56.70
2023-01-22T20:57:30.853Z,68.20
2023-01-22T21:00:01.997Z,110.80
2023-01-22T21:02:30.616Z,87.00
2023-01-22T21:04:59.357Z,93.70
2023-01-22T21:07:33.173Z,86.20
2023-01-22T21:10:04.313Z,99.40
2023-01-22T21:12:33.060Z,86.40
2023-01-22T21:15:05.262Z,90.60
2023-01-22T21:17:33.997Z,103.50
2023-01-22T21:20:03.027Z,98.30
2023-01-22T21:22:36.149Z,92.70
2023-01-22T21:25:05.226Z,84.90
2023-01-22T21:27:33.847Z,76.60
2023-01-22T21:30:03.577Z,85.50
2023-01-22T21:32:32.178Z,100.50
2023-01-22T21:35:06.336Z,86.40
2023-01-22T21:37:38.209Z,80.90
2023-01-22T21:40:09.896Z,76.90
2023-01-22T21:42:56.849Z,57.50
2023-01-22T21:45:44.575Z,67.90
2023-01-22T21:48:13.388Z,81.20
2023-01-22T21:50:46.934Z,60.50
2023-01-22T21:53:18.361Z,55.40
2023-01-22T21:55:51.966Z,62.10
2023-01-22T21:58:23.766Z,55.90
2023-01-22T22:00:54.955Z,51.20
2023-01-22T22:03:26.427Z,61.20
2023-01-22T22:06:02.167Z,64.50
2023-01-22T22:08:36.486Z,56.30
2023-01-22T22:11:05.540Z,60.70
2023-01-22T22:13:36.768Z,51.60
2023-01-22T22:16:08.138Z,51.40
2023-01-22T22:18:36.706Z,49.70
2023-01-22T22:21:08.889Z,60.60
2023-01-22T22:23:41.091Z,60.50
2023-01-22T22:26:11.275Z,46.90
2023-01-22T22:28:39.840Z,36.90
2023-01-22T22:31:18.429Z,34.70
2023-01-22T22:33:49.801Z,37.60
2023-01-22T22:36:22.383Z,32.40
2023-01-22T22:38:53.759Z,36.70
2023-01-22T22:41:27.853Z,39.80
2023-01-22T22:43:56.934Z,37.80
2023-01-22T22:46:34.408Z,39.10
2023-01-22T22:49:04.226Z,36.20
2023-01-22T22:51:35.915Z,41.40
2023-01-22T22:54:08.177Z,34.50
2023-01-22T22:56:40.107Z,42.20
2023-01-22T22:59:09.728Z,51.40
2023-01-22T23:01:38.314Z,43.80
2023-01-22T23:04:11.303Z,38.10
2023-01-22T23:06:45.571Z,37.90
2023-01-22T23:09:19.708Z,37.00
2023-01-22T23:11:52.244Z,34.70
2023-01-22T23:14:21.530Z,38.10
2023-01-22T23:16:50.253Z,39.30
2023-01-22T23:19:24.728Z,61.60
2023-01-22T23:21:58.792Z,47.70
2023-01-22T23:24:28.278Z,54.30
2023-01-22T23:26:57.254Z,52.40
2023-01-22T23:29:27.108Z,45.30
2023-01-22T23:31:56.832Z,54.50
2023-01-22T23:34:25.484Z,85.40
2023-01-22T23:36:56.438Z,82.40
2023-01-22T23:39:25.039Z,53.10
2023-01-22T23:41:53.623Z,41.90
2023-01-22T23:44:22.219Z,42.40
2023-01-22T23:46:54.367Z,40.70
2023-01-22T23:49:22.902Z,62.00
2023-01-22T23:51:51.387Z,57.80
2023-01-22T23:54:19.927Z,60.90
2023-01-22T23:56:48.437Z,57.80
2023-01-22T23:59:17.046Z,64.20
